sensor_id;sensor_type;location;lat;lon;timestamp;pressure;altitude;pressure_sealevel;temperature;humidity
38054;BME280;23859;50.672;7.164;2024-02-14T00:01:12;35896.09;;;-140.95;58.01
38054;BME280;23859;50.672;7.164;2024-02-14T00:03:38;36169.38;;;-140.95;57.54
38054;BME280;23859;50.672;7.164;2024-02-14T00:06:05;35944.31;;;-140.95;57.66
38054;BME280;23859;50.672;7.164;2024-02-14T00:08:32;35900.13;;;-140.95;57.67
38054;BME280;23859;50.672;7.164;2024-02-14T00:10:58;35859.94;;;-140.95;57.74
38054;BME280;23859;50.672;7.164;2024-02-14T00:13:24;35930.25;;;-140.95;57.85
38054;BME280;23859;50.672;7.164;2024-02-14T00:15:50;35886.06;;;-140.95;57.69
38054;BME280;23859;50.672;7.164;2024-02-14T00:18:17;35918.19;;;-140.95;57.91
38054;BME280;23859;50.672;7.164;2024-02-14T00:20:43;35932.28;;;-140.95;58.15
38054;BME280;23859;50.672;7.164;2024-02-14T00:23:09;35896.09;;;-140.95;57.97
38054;BME280;23859;50.672;7.164;2024-02-14T00:25:35;35900.13;;;-140.95;57.87
38054;BME280;23859;50.672;7.164;2024-02-14T00:28:01;35863.94;;;-140.95;58.15
38054;BME280;23859;50.672;7.164;2024-02-14T00:30:29;35950.34;;;-140.95;58.87
38054;BME280;23859;50.672;7.164;2024-02-14T00:32:55;35924.22;;;-140.95;58.93
38054;BME280;23859;50.672;7.164;2024-02-14T00:35:21;35894.09;;;-140.95;59.32
38054;BME280;23859;50.672;7.164;2024-02-14T00:37:48;35920.22;;;-140.95;59.49
38054;BME280;23859;50.672;7.164;2024-02-14T00:40:14;35930.25;;;-140.95;59.63
38054;BME280;23859;50.672;7.164;2024-02-14T00:42:40;35910.16;;;-140.95;59.81
38054;BME280;23859;50.672;7.164;2024-02-14T00:45:07;35892.09;;;-140.95;59.91
38054;BME280;23859;50.672;7.164;2024-02-14T00:47:35;35912.19;;;-140.95;59.78
38054;BME280;23859;50.672;7.164;2024-02-14T00:50:04;35922.22;;;-140.95;60.19
38054;BME280;23859;50.672;7.164;2024-02-14T00:52:30;35902.13;;;-140.95;59.99
38054;BME280;23859;50.672;7.164;2024-02-14T00:54:56;35906.16;;;-140.95;60.32
38054;BME280;23859;50.672;7.164;2024-02-14T00:57:23;35908.16;;;-140.95;60.30
38054;BME280;23859;50.672;7.164;2024-02-14T00:59:52;35908.16;;;-140.95;60.32
38054;BME280;23859;50.672;7.164;2024-02-14T01:02:18;35900.13;;;-140.95;60.41
38054;BME280;23859;50.672;7.164;2024-02-14T01:04:44;35892.09;;;-140.95;60.45
38054;BME280;23859;50.672;7.164;2024-02-14T01:07:10;35924.22;;;-140.95;60.83
38054;BME280;23859;50.672;7.164;2024-02-14T01:09:37;35920.22;;;-140.95;60.90
38054;BME280;23859;50.672;7.164;2024-02-14T01:12:03;35904.13;;;-140.95;61.30
38054;BME280;23859;50.672;7.164;2024-02-14T01:14:31;35938.28;;;-140.95;61.49
38054;BME280;23859;50.672;7.164;2024-02-14T01:16:57;35916.19;;;-140.95;61.69
38054;BME280;23859;50.672;7.164;2024-02-14T01:19:23;35904.13;;;-140.95;61.68
38054;BME280;23859;50.672;7.164;2024-02-14T01:21:54;35936.28;;;-140.95;61.72
38054;BME280;23859;50.672;7.164;2024-02-14T01:24:22;35928.25;;;-140.95;62.29
38054;BME280;23859;50.672;7.164;2024-02-14T01:26:48;35912.19;;;-140.95;61.85
38054;BME280;23859;50.672;7.164;2024-02-14T01:29:16;35946.34;;;-140.95;61.90
38054;BME280;23859;50.672;7.164;2024-02-14T01:31:42;35928.25;;;-140.95;62.54
38054;BME280;23859;50.672;7.164;2024-02-14T01:34:08;35912.19;;;-140.95;62.23
38054;BME280;23859;50.672;7.164;2024-02-14T01:36:34;35958.38;;;-140.95;62.88
38054;BME280;23859;50.672;7.164;2024-02-14T01:39:00;35912.19;;;-140.95;63.11
38054;BME280;23859;50.672;7.164;2024-02-14T01:41:26;35948.34;;;-140.95;63.11
38054;BME280;23859;50.672;7.164;2024-02-14T01:43:53;35950.34;;;-140.95;63.28
38054;BME280;23859;50.672;7.164;2024-02-14T01:46:19;35932.28;;;-140.95;63.80
38054;BME280;23859;50.672;7.164;2024-02-14T01:48:45;35956.38;;;-140.95;63.63
38054;BME280;23859;50.672;7.164;2024-02-14T01:51:12;35936.28;;;-140.95;63.81
38054;BME280;23859;50.672;7.164;2024-02-14T01:53:39;35948.34;;;-140.95;64.37
38054;BME280;23859;50.672;7.164;2024-02-14T01:56:06;35948.34;;;-140.95;64.74
38054;BME280;23859;50.672;7.164;2024-02-14T01:58:33;35912.19;;;-140.95;64.77
38054;BME280;23859;50.672;7.164;2024-02-14T02:01:00;35920.22;;;-140.95;64.81
38054;BME280;23859;50.672;7.164;2024-02-14T02:03:26;35928.25;;;-140.95;64.95
38054;BME280;23859;50.672;7.164;2024-02-14T02:05:53;35936.28;;;-140.95;64.90
38054;BME280;23859;50.672;7.164;2024-02-14T02:08:20;35966.44;;;-140.95;65.15
38054;BME280;23859;50.672;7.164;2024-02-14T02:10:46;35920.22;;;-140.95;65.31
38054;BME280;23859;50.672;7.164;2024-02-14T02:13:13;35956.38;;;-140.95;65.55
38054;BME280;23859;50.672;7.164;2024-02-14T02:15:41;35972.44;;;-140.95;65.58
38054;BME280;23859;50.672;7.164;2024-02-14T02:18:10;35908.16;;;-140.95;65.88
38054;BME280;23859;50.672;7.164;2024-02-14T02:20:37;35974.47;;;-140.95;66.25
38054;BME280;23859;50.672;7.164;2024-02-14T02:23:04;35938.28;;;-140.95;66.76
38054;BME280;23859;50.672;7.164;2024-02-14T02:25:31;35942.31;;;-140.95;66.72
38054;BME280;23859;50.672;7.164;2024-02-14T02:27:57;35940.31;;;-140.95;67.63
38054;BME280;23859;50.672;7.164;2024-02-14T02:30:23;35944.31;;;-140.95;67.39
38054;BME280;23859;50.672;7.164;2024-02-14T02:32:53;35952.34;;;-140.95;67.78
38054;BME280;23859;50.672;7.164;2024-02-14T02:35:19;35934.28;;;-140.95;67.92
38054;BME280;23859;50.672;7.164;2024-02-14T02:37:46;35940.31;;;-140.95;67.77
38054;BME280;23859;50.672;7.164;2024-02-14T02:40:14;35934.28;;;-140.95;67.63
38054;BME280;23859;50.672;7.164;2024-02-14T02:42:40;35946.34;;;-140.95;67.53
38054;BME280;23859;50.672;7.164;2024-02-14T02:45:06;35932.28;;;-140.95;68.15
38054;BME280;23859;50.672;7.164;2024-02-14T02:47:33;35964.41;;;-140.95;68.28
38054;BME280;23859;50.672;7.164;2024-02-14T02:49:59;35942.31;;;-140.95;68.32
38054;BME280;23859;50.672;7.164;2024-02-14T02:52:27;35954.38;;;-140.95;68.12
38054;BME280;23859;50.672;7.164;2024-02-14T02:55:02;35956.38;;;-140.95;68.30
38054;BME280;23859;50.672;7.164;2024-02-14T02:57:30;35956.38;;;-140.95;68.09
38054;BME280;23859;50.672;7.164;2024-02-14T02:59:58;35934.28;;;-140.95;68.16
38054;BME280;23859;50.672;7.164;2024-02-14T03:02:24;35954.38;;;-140.95;68.32
38054;BME280;23859;50.672;7.164;2024-02-14T03:04:51;35916.19;;;-140.95;68.03
38054;BME280;23859;50.672;7.164;2024-02-14T03:07:19;35940.31;;;-140.95;67.80
38054;BME280;23859;50.672;7.164;2024-02-14T03:09:45;35920.22;;;-140.95;67.78
38054;BME280;23859;50.672;7.164;2024-02-14T03:12:11;35974.47;;;-140.95;67.69
38054;BME280;23859;50.672;7.164;2024-02-14T03:14:41;35928.25;;;-140.95;67.75
38054;BME280;23859;50.672;7.164;2024-02-14T03:17:10;35908.16;;;-140.95;67.61
38054;BME280;23859;50.672;7.164;2024-02-14T03:19:36;35932.28;;;-140.95;67.61
38054;BME280;23859;50.672;7.164;2024-02-14T03:22:05;35922.22;;;-140.95;67.54
38054;BME280;23859;50.672;7.164;2024-02-14T03:24:35;35910.16;;;-140.95;67.97
38054;BME280;23859;50.672;7.164;2024-02-14T03:27:03;35922.22;;;-140.95;68.16
38054;BME280;23859;50.672;7.164;2024-02-14T03:29:30;35910.16;;;-140.95;67.88
38054;BME280;23859;50.672;7.164;2024-02-14T03:31:56;35940.31;;;-140.95;67.74
38054;BME280;23859;50.672;7.164;2024-02-14T03:34:24;35916.19;;;-140.95;67.43
38054;BME280;23859;50.672;7.164;2024-02-14T03:36:56;35920.22;;;-140.95;67.52
38054;BME280;23859;50.672;7.164;2024-02-14T03:39:22;35908.16;;;-140.95;67.69
38054;BME280;23859;50.672;7.164;2024-02-14T03:41:48;35898.13;;;-140.95;67.56
38054;BME280;23859;50.672;7.164;2024-02-14T03:44:14;35918.19;;;-140.95;67.69
38054;BME280;23859;50.672;7.164;2024-02-14T03:46:40;35898.13;;;-140.95;67.39
38054;BME280;23859;50.672;7.164;2024-02-14T03:49:06;35926.25;;;-140.95;67.71
38054;BME280;23859;50.672;7.164;2024-02-14T03:51:32;35884.03;;;-140.95;67.74
38054;BME280;23859;50.672;7.164;2024-02-14T03:53:59;35896.09;;;-140.95;68.10
38054;BME280;23859;50.672;7.164;2024-02-14T03:56:25;35928.25;;;-140.95;68.14
38054;BME280;23859;50.672;7.164;2024-02-14T03:58:52;35920.22;;;-140.95;68.06
38054;BME280;23859;50.672;7.164;2024-02-14T04:01:18;35916.19;;;-140.95;68.28
38054;BME280;23859;50.672;7.164;2024-02-14T04:03:46;35912.19;;;-140.95;68.28
38054;BME280;23859;50.672;7.164;2024-02-14T04:06:13;35944.31;;;-140.95;67.89
38054;BME280;23859;50.672;7.164;2024-02-14T04:08:39;35876.00;;;-140.95;67.43
38054;BME280;23859;50.672;7.164;2024-02-14T04:11:05;35916.19;;;-140.95;67.83
38054;BME280;23859;50.672;7.164;2024-02-14T04:13:31;35920.22;;;-140.95;68.25
38054;BME280;23859;50.672;7.164;2024-02-14T04:15:57;35928.25;;;-140.95;68.54
38054;BME280;23859;50.672;7.164;2024-02-14T04:18:23;35910.16;;;-140.95;68.96
38054;BME280;23859;50.672;7.164;2024-02-14T04:20:49;35948.34;;;-140.95;69.28
38054;BME280;23859;50.672;7.164;2024-02-14T04:23:15;35932.28;;;-140.95;69.59
38054;BME280;23859;50.672;7.164;2024-02-14T04:25:42;35916.19;;;-140.95;68.98
38054;BME280;23859;50.672;7.164;2024-02-14T04:28:08;35964.41;;;-140.95;68.92
38054;BME280;23859;50.672;7.164;2024-02-14T04:30:34;35902.13;;;-140.95;69.46
38054;BME280;23859;50.672;7.164;2024-02-14T04:33:02;35944.31;;;-140.95;69.91
38054;BME280;23859;50.672;7.164;2024-02-14T04:35:28;35972.44;;;-140.95;69.63
38054;BME280;23859;50.672;7.164;2024-02-14T04:37:54;35904.13;;;-140.95;69.54
38054;BME280;23859;50.672;7.164;2024-02-14T04:40:21;35928.25;;;-140.95;69.66
38054;BME280;23859;50.672;7.164;2024-02-14T04:42:47;35928.25;;;-140.95;69.42
38054;BME280;23859;50.672;7.164;2024-02-14T04:45:13;35920.22;;;-140.95;69.65
38054;BME280;23859;50.672;7.164;2024-02-14T04:47:39;35922.22;;;-140.95;69.31
38054;BME280;23859;50.672;7.164;2024-02-14T04:50:06;35920.22;;;-140.95;69.72
38054;BME280;23859;50.672;7.164;2024-02-14T04:52:32;35908.16;;;-140.95;69.41
38054;BME280;23859;50.672;7.164;2024-02-14T04:54:58;35948.34;;;-140.95;69.61
38054;BME280;23859;50.672;7.164;2024-02-14T04:57:24;35908.16;;;-140.95;69.76
38054;BME280;23859;50.672;7.164;2024-02-14T04:59:51;35904.13;;;-140.95;69.69
38054;BME280;23859;50.672;7.164;2024-02-14T05:02:17;35890.06;;;-140.95;69.24
38054;BME280;23859;50.672;7.164;2024-02-14T05:04:44;35920.22;;;-140.95;69.46
38054;BME280;23859;50.672;7.164;2024-02-14T05:07:10;35920.22;;;-140.95;69.81
38054;BME280;23859;50.672;7.164;2024-02-14T05:09:36;35894.09;;;-140.95;70.12
38054;BME280;23859;50.672;7.164;2024-02-14T05:12:02;35916.19;;;-140.95;69.36
38054;BME280;23859;50.672;7.164;2024-02-14T05:14:29;35896.09;;;-140.95;70.04
38054;BME280;23859;50.672;7.164;2024-02-14T05:16:57;35904.13;;;-140.95;70.13
38054;BME280;23859;50.672;7.164;2024-02-14T05:19:23;36193.47;;;-140.95;70.04
38054;BME280;23859;50.672;7.164;2024-02-14T05:21:49;35912.19;;;-140.95;70.22
38054;BME280;23859;50.672;7.164;2024-02-14T05:24:15;35912.19;;;-140.95;70.40
38054;BME280;23859;50.672;7.164;2024-02-14T05:26:41;35886.06;;;-140.95;69.80
38054;BME280;23859;50.672;7.164;2024-02-14T05:29:07;35900.13;;;-140.95;69.97
38054;BME280;23859;50.672;7.164;2024-02-14T05:31:44;35918.19;;;-140.95;70.49
38054;BME280;23859;50.672;7.164;2024-02-14T05:34:11;35904.13;;;-140.95;70.72
38054;BME280;23859;50.672;7.164;2024-02-14T05:36:37;35890.06;;;-140.95;70.79
38054;BME280;23859;50.672;7.164;2024-02-14T05:39:04;35930.25;;;-140.95;71.16
38054;BME280;23859;50.672;7.164;2024-02-14T05:41:33;36155.31;;;-140.95;71.22
38054;BME280;23859;50.672;7.164;2024-02-14T05:44:00;35904.13;;;-140.95;71.32
38054;BME280;23859;50.672;7.164;2024-02-14T05:46:26;35928.25;;;-140.95;71.35
38054;BME280;23859;50.672;7.164;2024-02-14T05:48:53;35952.34;;;-140.95;70.96
38054;BME280;23859;50.672;7.164;2024-02-14T05:51:19;35908.16;;;-140.95;71.05
38054;BME280;23859;50.672;7.164;2024-02-14T05:53:57;35902.13;;;-140.95;71.20
38054;BME280;23859;50.672;7.164;2024-02-14T05:56:23;35904.13;;;-140.95;70.69
38054;BME280;23859;50.672;7.164;2024-02-14T05:58:49;35896.09;;;-140.95;70.36
38054;BME280;23859;50.672;7.164;2024-02-14T06:01:15;35890.06;;;-140.95;70.28
38054;BME280;23859;50.672;7.164;2024-02-14T06:03:42;35902.13;;;-140.95;70.81
38054;BME280;23859;50.672;7.164;2024-02-14T06:06:09;35898.13;;;-140.95;70.33
38054;BME280;23859;50.672;7.164;2024-02-14T06:08:35;35904.13;;;-140.95;70.04
38054;BME280;23859;50.672;7.164;2024-02-14T06:11:01;35855.91;;;-140.95;70.04
38054;BME280;23859;50.672;7.164;2024-02-14T06:13:27;35900.13;;;-140.95;69.92
38054;BME280;23859;50.672;7.164;2024-02-14T06:15:53;35892.09;;;-140.95;70.40
38054;BME280;23859;50.672;7.164;2024-02-14T06:18:19;35916.19;;;-140.95;70.37
38054;BME280;23859;50.672;7.164;2024-02-14T06:20:45;35916.19;;;-140.95;70.29
38054;BME280;23859;50.672;7.164;2024-02-14T06:23:12;35888.06;;;-140.95;70.35
38054;BME280;23859;50.672;7.164;2024-02-14T06:25:38;35888.06;;;-140.95;70.53
38054;BME280;23859;50.672;7.164;2024-02-14T06:28:04;35910.16;;;-140.95;70.36
38054;BME280;23859;50.672;7.164;2024-02-14T06:30:30;35906.16;;;-140.95;70.46
38054;BME280;23859;50.672;7.164;2024-02-14T06:32:56;35888.06;;;-140.95;70.11
38054;BME280;23859;50.672;7.164;2024-02-14T06:35:26;35896.09;;;-140.95;69.91
38054;BME280;23859;50.672;7.164;2024-02-14T06:37:52;35884.03;;;-140.95;69.28
38054;BME280;23859;50.672;7.164;2024-02-14T06:40:18;35880.03;;;-140.95;69.50
38054;BME280;23859;50.672;7.164;2024-02-14T06:42:44;35920.22;;;-140.95;70.19
38054;BME280;23859;50.672;7.164;2024-02-14T06:45:10;35894.09;;;-140.95;70.22
38054;BME280;23859;50.672;7.164;2024-02-14T06:47:36;35926.25;;;-140.95;70.31
38054;BME280;23859;50.672;7.164;2024-02-14T06:50:03;35910.16;;;-140.95;69.97
38054;BME280;23859;50.672;7.164;2024-02-14T06:52:29;35900.13;;;-140.95;70.32
38054;BME280;23859;50.672;7.164;2024-02-14T06:54:56;35916.19;;;-140.95;70.49
38054;BME280;23859;50.672;7.164;2024-02-14T06:57:22;35902.13;;;-140.95;70.36
38054;BME280;23859;50.672;7.164;2024-02-14T06:59:48;35938.28;;;-140.95;69.88
38054;BME280;23859;50.672;7.164;2024-02-14T07:02:14;35892.09;;;-140.95;69.59
38054;BME280;23859;50.672;7.164;2024-02-14T07:04:40;35886.06;;;-140.95;69.65
38054;BME280;23859;50.672;7.164;2024-02-14T07:07:06;35912.19;;;-140.95;69.80
38054;BME280;23859;50.672;7.164;2024-02-14T07:09:33;35867.97;;;-140.95;69.98
38054;BME280;23859;50.672;7.164;2024-02-14T07:12:01;35894.09;;;-140.95;69.55
38054;BME280;23859;50.672;7.164;2024-02-14T07:14:28;35880.03;;;-140.95;69.01
38054;BME280;23859;50.672;7.164;2024-02-14T07:16:54;35914.19;;;-140.95;69.04
38054;BME280;23859;50.672;7.164;2024-02-14T07:19:20;35867.97;;;-140.95;68.66
38054;BME280;23859;50.672;7.164;2024-02-14T07:21:46;35876.00;;;-140.95;68.24
38054;BME280;23859;50.672;7.164;2024-02-14T07:24:12;35839.84;;;-140.95;67.87
38054;BME280;23859;50.672;7.164;2024-02-14T07:26:38;35876.00;;;-140.95;68.21
38054;BME280;23859;50.672;7.164;2024-02-14T07:29:06;35878.03;;;-140.95;68.32
38054;BME280;23859;50.672;7.164;2024-02-14T07:31:32;35845.88;;;-140.95;68.75
38054;BME280;23859;50.672;7.164;2024-02-14T07:34:00;35904.13;;;-140.95;68.24
38054;BME280;23859;50.672;7.164;2024-02-14T07:36:29;35867.97;;;-140.95;68.11
38054;BME280;23859;50.672;7.164;2024-02-14T07:38:55;35886.06;;;-140.95;68.09
38054;BME280;23859;50.672;7.164;2024-02-14T07:41:21;35857.94;;;-140.95;68.08
38054;BME280;23859;50.672;7.164;2024-02-14T07:43:47;35857.94;;;-140.95;67.82
38054;BME280;23859;50.672;7.164;2024-02-14T07:46:19;35880.03;;;-140.95;67.52
38054;BME280;23859;50.672;7.164;2024-02-14T07:48:46;35831.81;;;-140.95;67.57
38054;BME280;23859;50.672;7.164;2024-02-14T07:51:12;36082.97;;;-140.95;67.32
38054;BME280;23859;50.672;7.164;2024-02-14T07:53:39;35819.75;;;-140.95;67.12
38054;BME280;23859;50.672;7.164;2024-02-14T07:56:05;35819.75;;;-140.95;66.86
38054;BME280;23859;50.672;7.164;2024-02-14T07:58:31;35853.91;;;-140.95;67.11
38054;BME280;23859;50.672;7.164;2024-02-14T08:00:57;35795.63;;;-140.95;67.09
38054;BME280;23859;50.672;7.164;2024-02-14T08:03:23;35771.53;;;-140.95;66.18
38054;BME280;23859;50.672;7.164;2024-02-14T08:05:50;35743.41;;;-140.95;65.94
38054;BME280;23859;50.672;7.164;2024-02-14T08:08:17;35789.63;;;-140.95;65.58
38054;BME280;23859;50.672;7.164;2024-02-14T08:10:43;35773.53;;;-140.95;65.77
38054;BME280;23859;50.672;7.164;2024-02-14T08:13:09;35787.59;;;-140.95;65.73
38054;BME280;23859;50.672;7.164;2024-02-14T08:15:36;35757.47;;;-140.95;65.83
38054;BME280;23859;50.672;7.164;2024-02-14T08:18:02;35757.47;;;-140.95;65.69
38054;BME280;23859;50.672;7.164;2024-02-14T08:20:28;35783.59;;;-140.95;65.07
38054;BME280;23859;50.672;7.164;2024-02-14T08:22:54;35765.50;;;-140.95;65.32
38054;BME280;23859;50.672;7.164;2024-02-14T08:25:20;35751.44;;;-140.95;65.10
38054;BME280;23859;50.672;7.164;2024-02-14T08:27:46;35753.44;;;-140.95;65.02
38054;BME280;23859;50.672;7.164;2024-02-14T08:30:13;35755.47;;;-140.95;65.04
38054;BME280;23859;50.672;7.164;2024-02-14T08:32:39;35791.63;;;-140.95;65.08
38054;BME280;23859;50.672;7.164;2024-02-14T08:35:05;35787.59;;;-140.95;65.94
38054;BME280;23859;50.672;7.164;2024-02-14T08:37:33;36093.00;;;-140.95;65.88
38054;BME280;23859;50.672;7.164;2024-02-14T08:40:02;35779.56;;;-140.95;65.34
38054;BME280;23859;50.672;7.164;2024-02-14T08:42:32;35779.56;;;-140.95;65.71
38054;BME280;23859;50.672;7.164;2024-02-14T08:44:58;35753.44;;;-140.95;65.58
38054;BME280;23859;50.672;7.164;2024-02-14T08:47:24;35747.41;;;-140.95;65.39
38054;BME280;23859;50.672;7.164;2024-02-14T08:49:51;35731.34;;;-140.95;65.06
38054;BME280;23859;50.672;7.164;2024-02-14T08:52:18;35727.34;;;-140.95;64.94
38054;BME280;23859;50.672;7.164;2024-02-14T08:54:44;35711.25;;;-140.95;65.06
38054;BME280;23859;50.672;7.164;2024-02-14T08:57:10;35697.19;;;-140.95;64.15
38054;BME280;23859;50.672;7.164;2024-02-14T08:59:36;35661.03;;;-140.95;63.81
38054;BME280;23859;50.672;7.164;2024-02-14T09:02:02;35685.13;;;-140.95;63.70
38054;BME280;23859;50.672;7.164;2024-02-14T09:04:28;35661.03;;;-140.95;63.32
38054;BME280;23859;50.672;7.164;2024-02-14T09:06:55;35653.00;;;-140.95;63.42
38054;BME280;23859;50.672;7.164;2024-02-14T09:09:21;35638.94;;;-140.95;62.77
38054;BME280;23859;50.672;7.164;2024-02-14T09:11:48;35636.91;;;-140.95;63.21
38054;BME280;23859;50.672;7.164;2024-02-14T09:14:14;35657.00;;;-140.95;62.83
38054;BME280;23859;50.672;7.164;2024-02-14T09:16:40;35650.97;;;-140.95;62.83
38054;BME280;23859;50.672;7.164;2024-02-14T09:19:06;35659.03;;;-140.95;63.09
38054;BME280;23859;50.672;7.164;2024-02-14T09:21:34;35578.66;;;-140.95;62.38
38054;BME280;23859;50.672;7.164;2024-02-14T09:24:03;35532.44;;;-140.95;60.50
38054;BME280;23859;50.672;7.164;2024-02-14T09:26:29;35508.34;;;-140.95;59.44
38054;BME280;23859;50.672;7.164;2024-02-14T09:28:56;35498.28;;;-140.95;59.49
38054;BME280;23859;50.672;7.164;2024-02-14T09:31:22;35512.34;;;-140.95;58.67
38054;BME280;23859;50.672;7.164;2024-02-14T09:33:48;35512.34;;;-140.95;59.28
38054;BME280;23859;50.672;7.164;2024-02-14T09:36:15;35524.41;;;-140.95;59.38
38054;BME280;23859;50.672;7.164;2024-02-14T09:38:42;35454.09;;;-140.95;59.39
38054;BME280;23859;50.672;7.164;2024-02-14T09:41:13;35476.19;;;-140.95;58.69
38054;BME280;23859;50.672;7.164;2024-02-14T09:43:44;35436.00;;;-140.95;57.81
38054;BME280;23859;50.672;7.164;2024-02-14T09:46:13;35409.91;;;-140.95;56.78
38054;BME280;23859;50.672;7.164;2024-02-14T09:48:40;35432.00;;;-140.95;57.14
38054;BME280;23859;50.672;7.164;2024-02-14T09:51:08;35482.22;;;-140.95;58.73
38054;BME280;23859;50.672;7.164;2024-02-14T09:53:35;35438.03;;;-140.95;58.11
38054;BME280;23859;50.672;7.164;2024-02-14T09:56:02;35462.13;;;-140.95;58.02
38054;BME280;23859;50.672;7.164;2024-02-14T09:58:29;35474.19;;;-140.95;57.71
38054;BME280;23859;50.672;7.164;2024-02-14T10:00:56;33967.72;;;-140.95;56.51
38054;BME280;23859;50.672;7.164;2024-02-14T10:03:22;35411.91;;;-140.95;56.69
38054;BME280;23859;50.672;7.164;2024-02-14T10:05:48;35413.91;;;-140.95;56.96
38054;BME280;23859;50.672;7.164;2024-02-14T10:08:14;35395.84;;;-140.95;56.78
38054;BME280;23859;50.672;7.164;2024-02-14T10:10:40;35419.94;;;-140.95;57.32
38054;BME280;23859;50.672;7.164;2024-02-14T10:13:07;35427.97;;;-140.95;57.43
38054;BME280;23859;50.672;7.164;2024-02-14T10:15:34;35411.91;;;-140.95;56.94
38054;BME280;23859;50.672;7.164;2024-02-14T10:18:00;35430.00;;;-140.95;56.82
38054;BME280;23859;50.672;7.164;2024-02-14T10:20:29;35413.91;;;-140.95;57.04
38054;BME280;23859;50.672;7.164;2024-02-14T10:23:03;35397.84;;;-140.95;56.96
38054;BME280;23859;50.672;7.164;2024-02-14T10:25:30;35446.06;;;-140.95;57.17
38054;BME280;23859;50.672;7.164;2024-02-14T10:27:57;35430.00;;;-140.95;56.63
38054;BME280;23859;50.672;7.164;2024-02-14T10:30:29;35596.75;;;-140.95;56.48
38054;BME280;23859;50.672;7.164;2024-02-14T10:32:55;35425.97;;;-140.95;57.43
38054;BME280;23859;50.672;7.164;2024-02-14T10:35:24;35415.94;;;-140.95;57.72
38054;BME280;23859;50.672;7.164;2024-02-14T10:37:50;35425.97;;;-140.95;57.01
38054;BME280;23859;50.672;7.164;2024-02-14T10:40:16;35397.84;;;-140.95;57.36
38054;BME280;23859;50.672;7.164;2024-02-14T10:42:43;35417.94;;;-140.95;57.29
38054;BME280;23859;50.672;7.164;2024-02-14T10:45:09;35442.03;;;-140.95;57.42
38054;BME280;23859;50.672;7.164;2024-02-14T10:47:36;35496.28;;;-140.95;57.79
38054;BME280;23859;50.672;7.164;2024-02-14T10:50:06;35462.13;;;-140.95;57.51
38054;BME280;23859;50.672;7.164;2024-02-14T10:52:35;35454.09;;;-140.95;57.96
38054;BME280;23859;50.672;7.164;2024-02-14T10:55:03;35405.88;;;-140.95;57.71
38054;BME280;23859;50.672;7.164;2024-02-14T10:57:30;35476.19;;;-140.95;57.82
38054;BME280;23859;50.672;7.164;2024-02-14T11:00:05;35419.94;;;-140.95;57.70
38054;BME280;23859;50.672;7.164;2024-02-14T11:02:33;35421.94;;;-140.95;57.01
38054;BME280;23859;50.672;7.164;2024-02-14T11:04:59;35468.16;;;-140.95;57.59
38054;BME280;23859;50.672;7.164;2024-02-14T11:07:28;35474.19;;;-140.95;57.95
38054;BME280;23859;50.672;7.164;2024-02-14T11:10:07;35454.09;;;-140.95;58.57
38054;BME280;23859;50.672;7.164;2024-02-14T11:12:34;35452.09;;;-140.95;58.36
38054;BME280;23859;50.672;7.164;2024-02-14T11:15:14;35403.88;;;-140.95;57.49
38054;BME280;23859;50.672;7.164;2024-02-14T11:17:42;35425.97;;;-140.95;57.72
38054;BME280;23859;50.672;7.164;2024-02-14T11:20:16;35436.00;;;-140.95;58.58
38054;BME280;23859;50.672;7.164;2024-02-14T11:22:54;35440.03;;;-140.95;57.85
38054;BME280;23859;50.672;7.164;2024-02-14T11:25:31;35409.91;;;-140.95;57.35
38054;BME280;23859;50.672;7.164;2024-02-14T11:28:01;35377.75;;;-140.95;56.46
38054;BME280;23859;50.672;7.164;2024-02-14T11:30:40;35397.84;;;-140.95;57.58
38054;BME280;23859;50.672;7.164;2024-02-14T11:33:23;35397.84;;;-140.95;57.06
38054;BME280;23859;50.672;7.164;2024-02-14T11:35:53;35371.72;;;-140.95;56.91
38054;BME280;23859;50.672;7.164;2024-02-14T11:38:23;35699.19;;;-140.95;55.93
38054;BME280;23859;50.672;7.164;2024-02-14T11:40:54;35393.81;;;-140.95;56.67
38054;BME280;23859;50.672;7.164;2024-02-14T11:43:23;35755.47;;;-140.95;57.25
38054;BME280;23859;50.672;7.164;2024-02-14T11:45:49;35397.84;;;-140.95;57.35
38054;BME280;23859;50.672;7.164;2024-02-14T11:48:16;35371.72;;;-140.95;56.75
38054;BME280;23859;50.672;7.164;2024-02-14T11:50:44;35417.94;;;-140.95;56.54
38054;BME280;23859;50.672;7.164;2024-02-14T11:53:11;35409.91;;;-140.95;57.22
38054;BME280;23859;50.672;7.164;2024-02-14T11:55:39;35407.88;;;-140.95;57.35
38054;BME280;23859;50.672;7.164;2024-02-14T11:58:10;35381.78;;;-140.95;56.71
38054;BME280;23859;50.672;7.164;2024-02-14T12:00:40;35373.75;;;-140.95;56.69
38054;BME280;23859;50.672;7.164;2024-02-14T12:03:11;35365.69;;;-140.95;56.47
38054;BME280;23859;50.672;7.164;2024-02-14T12:05:38;35349.63;;;-140.95;55.86
38054;BME280;23859;50.672;7.164;2024-02-14T12:08:08;35367.72;;;-140.95;56.45
38054;BME280;23859;50.672;7.164;2024-02-14T12:10:37;35333.56;;;-140.95;56.41
38054;BME280;23859;50.672;7.164;2024-02-14T12:13:13;35423.97;;;-140.95;56.39
38054;BME280;23859;50.672;7.164;2024-02-14T12:15:41;35365.69;;;-140.95;57.16
38054;BME280;23859;50.672;7.164;2024-02-14T12:18:08;35397.84;;;-140.95;56.30
38054;BME280;23859;50.672;7.164;2024-02-14T12:20:37;35349.63;;;-140.95;55.86
38054;BME280;23859;50.672;7.164;2024-02-14T12:23:04;35401.88;;;-140.95;56.77
38054;BME280;23859;50.672;7.164;2024-02-14T12:25:34;35411.91;;;-140.95;57.81
38054;BME280;23859;50.672;7.164;2024-02-14T12:28:00;35421.94;;;-140.95;57.43
38054;BME280;23859;50.672;7.164;2024-02-14T12:30:43;35454.09;;;-140.95;58.45
38054;BME280;23859;50.672;7.164;2024-02-14T12:33:17;35438.03;;;-140.95;58.30
38054;BME280;23859;50.672;7.164;2024-02-14T12:35:47;35401.88;;;-140.95;57.84
38054;BME280;23859;50.672;7.164;2024-02-14T12:38:15;35349.63;;;-140.95;57.19
38054;BME280;23859;50.672;7.164;2024-02-14T12:40:42;35385.78;;;-140.95;56.87